Time;durP1;ratioP1;P1;durP2;ratioP2;P2;SDS_P1;SDS_P2;PMS_P1;PMS_P2;Temp;Humidity;BMP_temperature;BMP_pressure;BME280_temperature;BME280_humidity;BME280_pressure;Samples;Min_cycle;Max_cycle;Signal;HPM_P1;HPM_P2
2024/02/20 00:00:45;;;;;;;;;;;;;;;-146.32;100.00;63746.28;4124400;28;19937;-87
2024/02/20 00:03:06;;;;;;;;;;;;;;;-146.32;100.00;63746.28;4110674;28;20396;-87
2024/02/20 00:05:27;;;;;;;;;;;;;;;-146.32;100.00;63746.28;4123721;28;19992;-87
2024/02/20 00:07:51;;;;;;;;;;;;;;;-146.32;100.00;63746.28;4123072;28;20061;-86
2024/02/20 00:10:13;;;;;;;;;;;;;;;-146.32;100.00;63746.28;4108344;28;20452;-86
2024/02/20 00:12:37;;;;;;;;;;;;;;;-146.32;100.00;63746.28;4122743;28;19937;-85
2024/02/20 00:15:00;;;;;;;;;;;;;;;-146.32;100.00;63746.28;4135064;28;19961;-87
2024/02/20 00:17:22;;;;;;;;;;;;;;;-146.32;100.00;63746.28;4128819;28;19936;-87
2024/02/20 00:19:51;;;;;;;;;;;;;;;-146.32;100.00;63746.28;4123687;28;19937;-86
2024/02/20 00:22:14;;;;;;;;;;;;;;;-146.32;100.00;63746.28;4124403;28;20025;-86
2024/02/20 00:24:38;;;;;;;;;;;;;;;-146.32;100.00;63746.28;4123251;28;19944;-87
2024/02/20 00:26:59;;;;;;;;;;;;;;;-146.32;100.00;63746.28;4124926;28;20287;-87
2024/02/20 00:29:20;;;;;;;;;;;;;;;-146.32;100.00;63746.28;4123265;28;20110;-87
2024/02/20 00:31:44;;;;;;;;;;;;;;;-146.32;100.00;63746.28;4135416;28;20276;-86
2024/02/20 00:34:08;;;;;;;;;;;;;;;-146.32;100.00;63746.28;4123968;28;19932;-87
2024/02/20 00:36:29;;;;;;;;;;;;;;;-146.32;100.00;63746.28;4122418;28;20023;-87
2024/02/20 00:38:50;;;;;;;;;;;;;;;-146.32;100.00;63746.28;4121707;28;19978;-87
2024/02/20 00:41:14;;;;;;;;;;;;;;;-146.32;100.00;63746.28;4122453;28;19975;-87
2024/02/20 00:43:36;;;;;;;;;;;;;;;-146.32;100.00;63746.28;4108999;28;19937;-86
2024/02/20 00:46:00;;;;;;;;;;;;;;;-146.32;100.00;63746.28;4123786;28;19949;-86
2024/02/20 00:48:22;;;;;;;;;;;;;;;-146.32;100.00;63746.28;4121843;28;19965;-86
2024/02/20 00:50:43;;;;;;;;;;;;;;;-146.32;100.00;63746.28;4111577;28;19957;-87
2024/02/20 00:53:08;;;;;;;;;;;;;;;-146.32;100.00;63746.28;4110902;28;19933;-87
2024/02/20 00:55:28;;;;;;;;;;;;;;;-146.32;100.00;63746.28;4126529;28;20088;-88
2024/02/20 00:57:57;;;;;;;;;;;;;;;-146.32;100.00;63746.28;4125255;28;20012;-87
2024/02/20 01:00:20;;;;;;;;;;;;;;;-146.32;100.00;63746.28;4110173;28;19934;-88
2024/02/20 01:02:41;;;;;;;;;;;;;;;-146.32;100.00;63746.28;4125478;28;20376;-87
2024/02/20 01:05:06;;;;;;;;;;;;;;;-146.32;100.00;63746.28;4124959;28;19933;-88
2024/02/20 01:07:30;;;;;;;;;;;;;;;-146.32;100.00;63746.28;4111211;28;19932;-88
2024/02/20 01:09:59;;;;;;;;;;;;;;;-146.32;100.00;63746.28;4111151;28;19937;-89
2024/02/20 01:12:23;;;;;;;;;;;;;;;-146.32;100.00;63746.28;4124663;28;19948;-88
2024/02/20 01:14:47;;;;;;;;;;;;;;;-146.32;100.00;63746.28;4125194;28;19985;-88
2024/02/20 01:17:09;;;;;;;;;;;;;;;-146.32;100.00;63746.28;4125777;28;20395;-88
2024/02/20 01:19:32;;;;;;;;;;;;;;;-146.32;100.00;63746.28;4126746;28;20123;-88
2024/02/20 01:21:53;;;;;;;;;;;;;;;-146.32;100.00;63746.28;4126271;28;20010;-88
2024/02/20 01:24:15;;;;;;;;;;;;;;;-146.32;100.00;63746.28;4110213;28;19989;-88
2024/02/20 01:26:43;;;;;;;;;;;;;;;-146.32;100.00;63746.28;4126060;28;20436;-88
2024/02/20 01:29:03;;;;;;;;;;;;;;;-146.32;100.00;63746.28;4125721;28;19933;-88
2024/02/20 01:31:27;;;;;;;;;;;;;;;-146.32;100.00;63746.28;4101458;28;19937;-86
2024/02/20 01:33:48;;;;;;;;;;;;;;;-146.32;100.00;63746.28;4131447;28;20950;-87
2024/02/20 01:36:09;;;;;;;;;;;;;;;-146.32;100.00;63746.28;4126421;28;20395;-88
2024/02/20 01:38:30;;;;;;;;;;;;;;;-146.32;100.00;63746.28;4125719;28;19932;-86
2024/02/20 01:40:51;;;;;;;;;;;;;;;-146.32;100.00;63746.28;4126937;28;20508;-90
2024/02/20 01:43:14;;;;;;;;;;;;;;;-146.32;100.00;63746.28;4126216;28;20024;-88
2024/02/20 01:45:36;;;;;;;;;;;;;;;-146.32;100.00;63746.28;4097666;28;19994;-89
2024/02/20 01:48:00;;;;;;;;;;;;;;;-146.32;100.00;63746.28;4123464;28;19933;-85
2024/02/20 01:50:21;;;;;;;;;;;;;;;-146.32;100.00;63746.28;4123850;28;19977;-88
2024/02/20 01:52:43;;;;;;;;;;;;;;;-146.32;100.00;63746.28;4101610;28;19977;-87
2024/02/20 01:55:05;;;;;;;;;;;;;;;-146.32;100.00;63746.28;4130798;28;19932;-89
2024/02/20 01:57:26;;;;;;;;;;;;;;;-146.32;100.00;63746.28;4118500;28;20009;-88
2024/02/20 01:59:47;;;;;;;;;;;;;;;-146.32;100.00;63746.28;4116291;28;19983;-89
2024/02/20 02:02:08;;;;;;;;;;;;;;;-146.32;100.00;63746.28;4132254;28;19965;-88
2024/02/20 02:04:31;;;;;;;;;;;;;;;-146.32;100.00;63746.28;4113623;28;19937;-88
2024/02/20 02:06:52;;;;;;;;;;;;;;;-146.32;100.00;63746.28;4129588;28;19972;-88
2024/02/20 02:09:13;;;;;;;;;;;;;;;-146.32;100.00;63746.28;4103030;28;19937;-86
2024/02/20 02:11:36;;;;;;;;;;;;;;;-146.32;100.00;63746.28;4131111;28;19932;-87
2024/02/20 02:13:57;;;;;;;;;;;;;;;-146.32;100.00;63746.28;4131262;28;19933;-86
2024/02/20 02:16:18;;;;;;;;;;;;;;;-146.32;100.00;63746.28;4124305;28;20040;-86
2024/02/20 02:18:39;;;;;;;;;;;;;;;-146.32;100.00;63746.28;4118558;28;20022;-86
2024/02/20 02:21:04;;;;;;;;;;;;;;;-146.32;100.00;63746.28;4116978;28;19933;-87
2024/02/20 02:23:25;;;;;;;;;;;;;;;-146.32;100.00;63746.28;4116993;28;20466;-86
2024/02/20 02:25:46;;;;;;;;;;;;;;;-146.32;100.00;63746.28;4096736;28;20413;-86
2024/02/20 02:28:09;;;;;;;;;;;;;;;-146.32;100.00;63746.28;4112131;28;20469;-85
2024/02/20 02:30:30;;;;;;;;;;;;;;;-146.32;100.00;63746.28;4110091;28;20324;-87
2024/02/20 02:32:51;;;;;;;;;;;;;;;-146.32;100.00;63746.28;4116953;28;20312;-87
2024/02/20 02:35:12;;;;;;;;;;;;;;;-146.32;100.00;63746.28;4131350;28;20448;-87
2024/02/20 02:37:34;;;;;;;;;;;;;;;-146.32;100.00;63746.28;4130433;28;20313;-87
2024/02/20 02:39:54;;;;;;;;;;;;;;;-146.32;100.00;63746.28;4116498;28;19986;-88
2024/02/20 02:42:15;;;;;;;;;;;;;;;-146.32;100.00;63746.28;4116985;28;19937;-87
2024/02/20 02:44:38;;;;;;;;;;;;;;;-146.32;100.00;63746.28;4131949;28;19937;-89
2024/02/20 02:46:59;;;;;;;;;;;;;;;-146.32;100.00;63746.28;4130917;28;19933;-88
2024/02/20 02:49:20;;;;;;;;;;;;;;;-146.32;100.00;63746.28;4129651;28;19961;-88
2024/02/20 02:51:41;;;;;;;;;;;;;;;-146.32;100.00;63746.28;4118322;28;20374;-88
2024/02/20 02:54:02;;;;;;;;;;;;;;;-146.32;100.00;63746.28;4140646;28;19979;-89
2024/02/20 02:56:23;;;;;;;;;;;;;;;-146.32;100.00;63746.28;4141139;28;19937;-87
2024/02/20 02:58:44;;;;;;;;;;;;;;;-146.32;100.00;63746.28;4112829;28;19934;-86
2024/02/20 03:01:07;;;;;;;;;;;;;;;-146.32;100.00;63746.28;4140561;28;19932;-88
2024/02/20 03:03:30;;;;;;;;;;;;;;;-146.32;100.00;63746.28;4124922;28;19947;-87
2024/02/20 03:05:51;;;;;;;;;;;;;;;-146.32;100.00;63746.28;4125395;28;19936;-86
2024/02/20 03:08:12;;;;;;;;;;;;;;;-146.32;100.00;63746.28;4140296;28;20410;-86
2024/02/20 03:10:33;;;;;;;;;;;;;;;-146.32;100.00;63746.28;4140062;28;20328;-89
2024/02/20 03:12:55;;;;;;;;;;;;;;;-146.32;100.00;63746.28;4138219;28;19984;-87
2024/02/20 03:15:16;;;;;;;;;;;;;;;-146.32;100.00;63746.28;4139463;28;19932;-87
2024/02/20 03:17:43;;;;;;;;;;;;;;;-146.32;100.00;63746.28;4125018;28;19936;-88
2024/02/20 03:20:14;;;;;;;;;;;;;;;-146.32;100.00;63746.28;4126335;28;19932;-88
2024/02/20 03:22:35;;;;;;;;;;;;;;;-146.32;100.00;63746.28;4139865;28;20395;-87
2024/02/20 03:24:56;;;;;;;;;;;;;;;-146.32;100.00;63746.28;4140466;28;19933;-86
2024/02/20 03:27:17;;;;;;;;;;;;;;;-146.32;100.00;63746.28;4139241;28;19984;-88
2024/02/20 03:29:38;;;;;;;;;;;;;;;-146.32;100.00;63746.28;4125589;28;19997;-88
2024/02/20 03:31:59;;;;;;;;;;;;;;;-146.32;100.00;63746.28;4124647;28;19937;-88
2024/02/20 03:34:21;;;;;;;;;;;;;;;-146.32;100.00;63746.28;4124109;28;19933;-88
2024/02/20 03:36:44;;;;;;;;;;;;;;;-146.32;100.00;63746.28;4124218;28;20401;-86
2024/02/20 03:39:05;;;;;;;;;;;;;;;-146.32;100.00;63746.28;4124755;28;20303;-88
2024/02/20 03:41:25;;;;;;;;;;;;;;;-146.32;100.00;63746.28;4138600;28;19998;-87
2024/02/20 03:43:46;;;;;;;;;;;;;;;-146.32;100.00;63746.28;4140658;28;20380;-88
2024/02/20 03:46:09;;;;;;;;;;;;;;;-146.32;100.00;63746.28;4137636;28;19933;-87
2024/02/20 03:48:29;;;;;;;;;;;;;;;-146.32;100.00;63746.28;4140133;28;20013;-87
2024/02/20 03:50:52;;;;;;;;;;;;;;;-146.32;100.00;63746.28;4139532;28;19940;-88
2024/02/20 03:53:12;;;;;;;;;;;;;;;-146.32;100.00;63746.28;4137260;28;20028;-87
2024/02/20 03:55:33;;;;;;;;;;;;;;;-146.32;100.00;63746.28;4110344;28;20021;-88
2024/02/20 03:57:54;;;;;;;;;;;;;;;-146.32;100.00;63746.28;4138948;28;20057;-89
2024/02/20 04:00:16;;;;;;;;;;;;;;;-146.32;100.00;63746.28;4138604;28;20456;-87
2024/02/20 04:02:40;;;;;;;;;;;;;;;-146.32;100.00;63746.28;4138504;28;19951;-88
2024/02/20 04:05:01;;;;;;;;;;;;;;;-146.32;100.00;63746.28;4124371;28;21222;-89
2024/02/20 04:07:23;;;;;;;;;;;;;;;-146.32;100.00;63746.28;4136719;28;20101;-88
2024/02/20 04:09:44;;;;;;;;;;;;;;;-146.32;100.00;63746.28;4125543;28;20408;-88
2024/02/20 04:12:05;;;;;;;;;;;;;;;-146.32;100.00;63746.28;4125037;28;19981;-88
2024/02/20 04:14:26;;;;;;;;;;;;;;;-146.32;100.00;63746.28;4139972;28;19932;-86
2024/02/20 04:16:47;;;;;;;;;;;;;;;-146.32;100.00;63746.28;4113098;28;19946;-88
2024/02/20 04:19:08;;;;;;;;;;;;;;;-146.32;100.00;63746.28;4133433;28;19932;-88
2024/02/20 04:21:29;;;;;;;;;;;;;;;-146.32;100.00;63746.28;4139218;28;19940;-86
2024/02/20 04:23:52;;;;;;;;;;;;;;;-146.32;100.00;63746.28;4126429;28;20415;-88
2024/02/20 04:26:13;;;;;;;;;;;;;;;-146.32;100.00;63746.28;4143501;28;20024;-89
2024/02/20 04:28:35;;;;;;;;;;;;;;;-146.32;100.00;63746.28;4142215;28;19976;-86
2024/02/20 04:30:56;;;;;;;;;;;;;;;-146.32;100.00;63746.28;4126953;28;20277;-88
2024/02/20 04:33:17;;;;;;;;;;;;;;;-146.32;100.00;63746.28;4143020;28;20038;-89
2024/02/20 04:35:40;;;;;;;;;;;;;;;-146.32;100.00;63746.28;4143276;28;19948;-90
2024/02/20 04:38:02;;;;;;;;;;;;;;;-146.32;100.00;63746.28;4127091;28;20033;-89
2024/02/20 04:40:26;;;;;;;;;;;;;;;-146.32;100.00;63746.28;4141895;28;19948;-90
2024/02/20 04:42:49;;;;;;;;;;;;;;;-146.32;100.00;63746.28;4127919;28;19984;-89
2024/02/20 04:45:11;;;;;;;;;;;;;;;-146.32;100.00;63746.28;4127492;28;19932;-89
2024/02/20 04:47:32;;;;;;;;;;;;;;;-146.32;100.00;63746.28;4115083;28;20282;-89
2024/02/20 04:49:56;;;;;;;;;;;;;;;-146.32;100.00;63746.28;4140860;28;19932;-89
2024/02/20 04:52:17;;;;;;;;;;;;;;;-146.32;100.00;63746.28;4128091;28;19981;-88
2024/02/20 04:54:39;;;;;;;;;;;;;;;-146.32;100.00;63746.28;4142591;28;19947;-89
2024/02/20 04:57:01;;;;;;;;;;;;;;;-146.32;100.00;63746.28;4128238;28;20403;-90
2024/02/20 04:59:26;;;;;;;;;;;;;;;-146.32;100.00;63746.28;4142784;28;20064;-89
2024/02/20 05:01:48;;;;;;;;;;;;;;;-146.32;100.00;63746.28;4134264;28;19957;-89
2024/02/20 05:04:10;;;;;;;;;;;;;;;-146.32;100.00;63746.28;4143210;28;19983;-88
2024/02/20 05:06:31;;;;;;;;;;;;;;;-146.32;100.00;63746.28;4142627;28;20823;-89
2024/02/20 05:08:52;;;;;;;;;;;;;;;-146.32;100.00;63746.28;4141457;28;20345;-89
2024/02/20 05:11:13;;;;;;;;;;;;;;;-146.32;100.00;63746.28;4127480;28;19933;-88
2024/02/20 05:13:36;;;;;;;;;;;;;;;-146.32;100.00;63746.28;4129183;28;19972;-88
2024/02/20 05:15:56;;;;;;;;;;;;;;;-146.32;100.00;63746.28;4127664;28;20361;-87
2024/02/20 05:18:17;;;;;;;;;;;;;;;-146.32;100.00;63746.28;4127462;28;19988;-87
2024/02/20 05:20:38;;;;;;;;;;;;;;;-146.32;100.00;63746.28;4142518;28;20017;-87
2024/02/20 05:22:59;;;;;;;;;;;;;;;-146.32;100.00;63746.28;4141682;28;19937;-89
2024/02/20 05:25:21;;;;;;;;;;;;;;;-146.32;100.00;63746.28;4127157;28;19977;-87
2024/02/20 05:27:42;;;;;;;;;;;;;;;-146.32;100.00;63746.28;4141128;28;19965;-89
2024/02/20 05:30:06;;;;;;;;;;;;;;;-146.32;100.00;63746.28;4144381;28;19972;-88
2024/02/20 05:32:31;;;;;;;;;;;;;;;-146.32;100.00;63746.28;4129000;28;20021;-88
2024/02/20 05:34:53;;;;;;;;;;;;;;;-146.32;100.00;63746.28;4129236;28;19933;-88
2024/02/20 05:37:19;;;;;;;;;;;;;;;-146.32;100.00;63746.28;4140732;28;19977;-88
2024/02/20 05:39:40;;;;;;;;;;;;;;;-146.32;100.00;63746.28;4140929;28;19939;-88
2024/02/20 05:42:03;;;;;;;;;;;;;;;-146.32;100.00;63746.28;4127818;28;19985;-86
2024/02/20 05:44:25;;;;;;;;;;;;;;;-146.32;100.00;63746.28;4140517;28;19998;-87
2024/02/20 05:46:49;;;;;;;;;;;;;;;-146.32;100.00;63746.28;4142333;28;19933;-87
2024/02/20 05:49:10;;;;;;;;;;;;;;;-146.32;100.00;63746.28;4141681;28;20466;-87
2024/02/20 05:51:34;;;;;;;;;;;;;;;-146.32;100.00;63746.28;4139572;28;19976;-86
2024/02/20 05:53:55;;;;;;;;;;;;;;;-146.32;100.00;63746.28;4143024;28;19932;-86
2024/02/20 05:56:20;;;;;;;;;;;;;;;-146.32;100.00;63746.28;4140506;28;19933;-88
2024/02/20 05:58:41;;;;;;;;;;;;;;;-146.32;100.00;63746.28;4128420;28;19937;-88
2024/02/20 06:01:02;;;;;;;;;;;;;;;-146.32;100.00;63746.28;4117361;28;20416;-87
2024/02/20 06:03:25;;;;;;;;;;;;;;;-146.32;100.00;63746.28;4126070;28;19952;-89
2024/02/20 06:05:48;;;;;;;;;;;;;;;-146.32;100.00;63746.28;4128118;28;19932;-94
2024/02/20 06:08:12;;;;;;;;;;;;;;;-146.32;100.00;63746.28;4128247;28;19972;-92
2024/02/20 06:10:36;;;;;;;;;;;;;;;-146.32;100.00;63746.28;4145091;28;19936;-91
2024/02/20 06:12:56;;;;;;;;;;;;;;;-146.32;100.00;63746.28;4127072;28;20452;-90
2024/02/20 06:15:17;;;;;;;;;;;;;;;-146.32;100.00;63746.28;4140221;28;19955;-90
2024/02/20 06:17:38;;;;;;;;;;;;;;;-146.32;100.00;63746.28;4144565;28;19937;-96
2024/02/20 06:20:02;;;;;;;;;;;;;;;-146.32;100.00;63746.28;4130085;28;20329;-93
2024/02/20 06:22:25;;;;;;;;;;;;;;;-146.32;100.00;63746.28;4142990;28;19948;-93
2024/02/20 06:24:46;;;;;;;;;;;;;;;-146.32;100.00;63746.28;4141630;28;20308;-90
2024/02/20 06:27:07;;;;;;;;;;;;;;;-146.32;100.00;63746.28;4141751;28;19940;-90
2024/02/20 06:29:34;;;;;;;;;;;;;;;-146.32;100.00;63746.28;4143882;28;20348;-91
2024/02/20 06:32:20;;;;;;;;;;;;;;;-146.32;100.00;63746.28;4140807;28;19952;-94
2024/02/20 06:34:41;;;;;;;;;;;;;;;-146.32;100.00;63746.28;4144209;28;19992;-90
2024/02/20 06:37:21;;;;;;;;;;;;;;;-146.32;100.00;63746.28;4141304;28;19981;-91
2024/02/20 06:39:42;;;;;;;;;;;;;;;-146.32;100.00;63746.28;4141479;28;19935;-96
2024/02/20 06:42:03;;;;;;;;;;;;;;;-146.32;100.00;63746.28;4127640;28;19953;-91
2024/02/20 06:44:28;;;;;;;;;;;;;;;-146.32;100.00;63746.28;4130496;28;20006;-91
2024/02/20 06:46:49;;;;;;;;;;;;;;;-146.32;100.00;63746.28;4142301;28;19932;-96
2024/02/20 06:49:11;;;;;;;;;;;;;;;-146.32;100.00;63746.28;4134790;28;19948;-94
2024/02/20 06:51:32;;;;;;;;;;;;;;;-146.32;100.00;63746.28;4127453;28;19973;-92
2024/02/20 06:53:57;;;;;;;;;;;;;;;-146.32;100.00;63746.28;4126529;28;19976;-93
2024/02/20 06:56:17;;;;;;;;;;;;;;;-146.32;100.00;63746.28;4126601;28;20012;-91
2024/02/20 06:58:39;;;;;;;;;;;;;;;-146.32;100.00;63746.28;4143444;28;19936;-92
2024/02/20 07:01:03;;;;;;;;;;;;;;;-146.32;100.00;63746.28;4149333;28;19956;-91
2024/02/20 07:03:24;;;;;;;;;;;;;;;-146.32;100.00;63746.28;4160507;28;19953;-93
2024/02/20 07:05:46;;;;;;;;;;;;;;;-146.32;100.00;63746.28;4139535;28;19985;-92
2024/02/20 07:08:08;;;;;;;;;;;;;;;-146.32;100.00;63746.28;4114970;28;20078;-91
2024/02/20 07:10:31;;;;;;;;;;;;;;;-146.32;100.00;63746.28;4112934;28;20034;-91
2024/02/20 07:12:52;;;;;;;;;;;;;;;-146.32;100.00;63746.28;4125526;28;20012;-93
2024/02/20 07:15:14;;;;;;;;;;;;;;;-146.32;100.00;63746.28;4126936;28;20407;-91
2024/02/20 07:17:35;;;;;;;;;;;;;;;-146.32;100.00;63746.28;4126207;28;20285;-89
2024/02/20 07:19:57;;;;;;;;;;;;;;;-146.32;100.00;63746.28;4126706;28;20458;-90
2024/02/20 07:22:20;;;;;;;;;;;;;;;-146.32;100.00;63746.28;4127237;28;19972;-86
2024/02/20 07:24:42;;;;;;;;;;;;;;;-146.32;100.00;63746.28;4140678;28;20399;-91
2024/02/20 07:27:05;;;;;;;;;;;;;;;-146.32;100.00;63746.28;4127621;28;20025;-90
2024/02/20 16:05:09;;;;;;;;;;;;;;;-146.32;100.00;63746.28;4168439;28;20264;-92
2024/02/20 16:07:30;;;;;;;;;;;;;;;-146.32;100.00;63746.28;4113016;28;20388;-92
2024/02/20 16:09:56;;;;;;;;;;;;;;;-146.32;100.00;63746.28;4113609;28;19949;-93
2024/02/20 16:12:17;;;;;;;;;;;;;;;-146.32;100.00;63746.28;4109201;28;19951;-89
2024/02/20 16:14:40;;;;;;;;;;;;;;;-146.32;100.00;63746.28;4102512;28;19936;-91
2024/02/20 16:17:09;;;;;;;;;;;;;;;-146.32;100.00;63746.28;4124293;28;19984;-92
2024/02/20 16:19:38;;;;;;;;;;;;;;;-146.32;100.00;63746.28;4122820;28;20100;-90
2024/02/20 16:22:01;;;;;;;;;;;;;;;-146.32;100.00;63746.28;4115978;28;20078;-93
2024/02/20 16:24:28;;;;;;;;;;;;;;;-146.32;100.00;63746.28;4107686;28;19977;-92
2024/02/20 16:26:54;;;;;;;;;;;;;;;-146.32;100.00;63746.28;4133873;28;20345;-89
2024/02/20 16:29:29;;;;;;;;;;;;;;;-146.32;100.00;63746.28;4115222;28;20037;-89
2024/02/20 16:31:55;;;;;;;;;;;;;;;-146.32;100.00;63746.28;4104847;28;20022;-92
2024/02/20 16:34:19;;;;;;;;;;;;;;;-146.32;100.00;63746.28;4133607;28;19976;-94
2024/02/20 16:36:57;;;;;;;;;;;;;;;-146.32;100.00;63746.28;4131852;28;19980;-91
2024/02/20 16:39:19;;;;;;;;;;;;;;;-146.32;100.00;63746.28;4103926;28;20215;-91
2024/02/20 16:41:46;;;;;;;;;;;;;;;-146.32;100.00;63746.28;4128656;28;19952;-92
2024/02/20 16:44:14;;;;;;;;;;;;;;;-146.32;100.00;63746.28;4116128;28;20069;-92
2024/02/20 16:46:36;;;;;;;;;;;;;;;-146.32;100.00;63746.28;4115216;28;19972;-91
2024/02/20 16:49:06;;;;;;;;;;;;;;;-146.32;100.00;63746.28;4129336;28;19937;-92
2024/02/20 16:51:37;;;;;;;;;;;;;;;-146.32;100.00;63746.28;4117879;28;19933;-92
2024/02/20 16:54:03;;;;;;;;;;;;;;;-146.32;100.00;63746.28;4113434;28;19936;-93
2024/02/20 16:56:36;;;;;;;;;;;;;;;;;;;;;
2024/02/20 16:59:00;;;;;;;;;;;;;;;-146.32;100.00;63746.28;4114916;28;20496;-92
2024/02/20 17:01:35;;;;;;;;;;;;;;;-146.32;100.00;63746.28;4126907;28;20005;-90
2024/02/20 17:03:58;;;;;;;;;;;;;;;-146.32;100.00;63746.28;4127603;28;19985;-90
2024/02/20 17:06:29;;;;;;;;;;;;;;;-146.32;100.00;63746.28;4125086;28;19964;-90
2024/02/20 17:08:51;;;;;;;;;;;;;;;-146.32;100.00;63746.28;4114417;28;20388;-90
2024/02/20 17:11:12;;;;;;;;;;;;;;;-146.32;100.00;63746.28;4125039;28;20293;-90
2024/02/20 17:13:44;;;;;;;;;;;;;;;-146.32;100.00;63746.28;4131434;28;20324;-89
2024/02/20 17:16:10;;;;;;;;;;;;;;;-146.32;100.00;63746.28;4136674;28;19932;-89
2024/02/20 17:18:35;;;;;;;;;;;;;;;-146.32;100.00;63746.28;4131299;28;20062;-89
2024/02/20 17:20:56;;;;;;;;;;;;;;;-146.32;100.00;63746.28;4126899;28;19933;-90
2024/02/20 17:23:17;;;;;;;;;;;;;;;-146.32;100.00;63746.28;4141946;28;20021;-90
2024/02/20 17:25:38;;;;;;;;;;;;;;;-146.32;100.00;63746.28;4113370;28;20433;-91
2024/02/20 17:28:03;;;;;;;;;;;;;;;-146.32;100.00;63746.28;4137346;28;19937;-89
2024/02/20 17:30:25;;;;;;;;;;;;;;;-146.32;100.00;63746.28;4125406;28;19933;-86
2024/02/20 17:32:50;;;;;;;;;;;;;;;-146.32;100.00;63746.28;4126610;28;19980;-85
2024/02/20 17:35:17;;;;;;;;;;;;;;;-146.32;100.00;63746.28;4130752;28;19933;-87
2024/02/20 17:37:40;;;;;;;;;;;;;;;-146.32;100.00;63746.28;4141916;28;20268;-86
2024/02/20 17:40:00;;;;;;;;;;;;;;;-146.32;100.00;63746.28;4127680;28;19980;-86
2024/02/20 17:42:21;;;;;;;;;;;;;;;-146.32;100.00;63746.28;4141268;28;20296;-88
2024/02/20 17:44:42;;;;;;;;;;;;;;;-146.32;100.00;63746.28;4114711;28;19993;-87
2024/02/20 17:47:07;;;;;;;;;;;;;;;-146.32;100.00;63746.28;4127968;28;20052;-85
2024/02/20 17:49:28;;;;;;;;;;;;;;;-146.32;100.00;63746.28;4143427;28;19945;-88
2024/02/20 17:51:51;;;;;;;;;;;;;;;-146.32;100.00;63746.28;4127679;28;19989;-89
2024/02/20 17:54:12;;;;;;;;;;;;;;;-146.32;100.00;63746.28;4138722;28;19949;-89
2024/02/20 17:56:33;;;;;;;;;;;;;;;-146.32;100.00;63746.28;4127933;28;20037;-88
2024/02/20 17:58:54;;;;;;;;;;;;;;;-146.32;100.00;63746.28;4143861;28;19941;-88
2024/02/20 18:01:15;;;;;;;;;;;;;;;-146.32;100.00;63746.28;4128828;28;19932;-87
2024/02/20 18:03:37;;;;;;;;;;;;;;;-146.32;100.00;63746.28;4127792;28;19933;-87
2024/02/20 18:05:58;;;;;;;;;;;;;;;-146.32;100.00;63746.28;4146357;28;19937;-89
2024/02/20 18:08:21;;;;;;;;;;;;;;;-146.32;100.00;63746.28;4140150;28;19937;-89
2024/02/20 18:10:42;;;;;;;;;;;;;;;-146.32;100.00;63746.28;4129959;28;20002;-88
2024/02/20 18:13:03;;;;;;;;;;;;;;;-146.32;100.00;63746.28;4141451;28;19932;-90
2024/02/20 18:15:24;;;;;;;;;;;;;;;-146.32;100.00;63746.28;4145600;28;19932;-88
2024/02/20 18:17:46;;;;;;;;;;;;;;;-146.32;100.00;63746.28;4135195;28;20387;-87
2024/02/20 18:20:09;;;;;;;;;;;;;;;-146.32;100.00;63746.28;4126946;28;19945;-87
2024/02/20 18:22:30;;;;;;;;;;;;;;;-146.32;100.00;63746.28;4140946;28;19972;-84
2024/02/20 18:24:51;;;;;;;;;;;;;;;-146.32;100.00;63746.28;4139362;28;19932;-85
2024/02/20 18:27:13;;;;;;;;;;;;;;;-146.32;100.00;63746.28;4141058;28;20352;-85
2024/02/20 18:29:34;;;;;;;;;;;;;;;-146.32;100.00;63746.28;4142335;28;20442;-86
2024/02/20 18:31:55;;;;;;;;;;;;;;;-146.32;100.00;63746.28;4136254;28;19956;-87
2024/02/20 18:34:15;;;;;;;;;;;;;;;-146.32;100.00;63746.28;4143499;28;19933;-86
2024/02/20 18:36:38;;;;;;;;;;;;;;;-146.32;100.00;63746.28;4140532;28;19932;-86
2024/02/20 18:39:00;;;;;;;;;;;;;;;-146.32;100.00;63746.28;4140281;28;19957;-88
2024/02/20 18:41:21;;;;;;;;;;;;;;;-146.32;100.00;63746.28;4109250;28;20279;-87
2024/02/20 18:43:42;;;;;;;;;;;;;;;-146.32;100.00;63746.28;4132692;28;19936;-86
2024/02/20 18:46:03;;;;;;;;;;;;;;;-146.32;100.00;63746.28;4126442;28;19941;-85
2024/02/20 18:48:28;;;;;;;;;;;;;;;-146.32;100.00;63746.28;4140162;28;20439;-88
2024/02/20 18:50:49;;;;;;;;;;;;;;;-146.32;100.00;63746.28;4127410;28;19999;-91
2024/02/20 18:53:13;;;;;;;;;;;;;;;-146.32;100.00;63746.28;4126789;28;19937;-90
2024/02/20 18:55:33;;;;;;;;;;;;;;;-146.32;100.00;63746.28;4126650;28;20416;-90
2024/02/20 18:57:56;;;;;;;;;;;;;;;-146.32;100.00;63746.28;4143991;28;19932;-88
2024/02/20 19:00:18;;;;;;;;;;;;;;;-146.32;100.00;63746.28;4132535;28;20372;-88
2024/02/20 19:02:39;;;;;;;;;;;;;;;-146.32;100.00;63746.28;4125372;28;19953;-87
2024/02/20 19:05:00;;;;;;;;;;;;;;;-146.32;100.00;63746.28;4140851;28;20431;-88
2024/02/20 19:07:23;;;;;;;;;;;;;;;-146.32;100.00;63746.28;4140678;28;19993;-88
2024/02/20 19:09:46;;;;;;;;;;;;;;;-146.32;100.00;63746.28;4126095;28;19936;-90
2024/02/20 19:12:07;;;;;;;;;;;;;;;-146.32;100.00;63746.28;4137959;28;19932;-89
2024/02/20 19:14:28;;;;;;;;;;;;;;;-146.32;100.00;63746.28;4138268;28;19931;-87
2024/02/20 19:16:49;;;;;;;;;;;;;;;-146.32;100.00;63746.28;4140833;28;20443;-91
2024/02/20 19:19:10;;;;;;;;;;;;;;;-146.32;100.00;63746.28;4127510;28;19940;-88
2024/02/20 19:21:32;;;;;;;;;;;;;;;-146.32;100.00;63746.28;4140433;28;19979;-90
2024/02/20 19:23:54;;;;;;;;;;;;;;;-146.32;100.00;63746.28;4139672;28;19957;-88
2024/02/20 19:26:19;;;;;;;;;;;;;;;-146.32;100.00;63746.28;4138410;28;19941;-87
2024/02/20 19:28:40;;;;;;;;;;;;;;;-146.32;100.00;63746.28;4133744;28;19932;-88
2024/02/20 19:31:01;;;;;;;;;;;;;;;-146.32;100.00;63746.28;4126913;28;19940;-88
2024/02/20 19:33:24;;;;;;;;;;;;;;;-146.32;100.00;63746.28;4113875;28;19932;-89
2024/02/20 19:35:49;;;;;;;;;;;;;;;-146.32;100.00;63746.28;4114511;28;19945;-89
2024/02/20 19:38:10;;;;;;;;;;;;;;;-146.32;100.00;63746.28;4132064;28;19973;-89
2024/02/20 19:40:32;;;;;;;;;;;;;;;-146.32;100.00;63746.28;4127314;28;19933;-88
2024/02/20 19:42:55;;;;;;;;;;;;;;;-146.32;100.00;63746.28;4126151;28;19936;-88
2024/02/20 19:45:16;;;;;;;;;;;;;;;-146.32;100.00;63746.28;4125152;28;20444;-90
2024/02/20 19:47:39;;;;;;;;;;;;;;;-146.32;100.00;63746.28;4140828;28;20308;-88
2024/02/20 19:50:00;;;;;;;;;;;;;;;-146.32;100.00;63746.28;4135716;28;19937;-85
2024/02/20 19:52:21;;;;;;;;;;;;;;;-146.32;100.00;63746.28;4123624;28;19993;-85
2024/02/20 19:54:43;;;;;;;;;;;;;;;-146.32;100.00;63746.28;4139188;28;19976;-85
2024/02/20 19:57:04;;;;;;;;;;;;;;;-146.32;100.00;63746.28;4133752;28;20419;-88
2024/02/20 19:59:26;;;;;;;;;;;;;;;-146.32;100.00;63746.28;4126268;28;19940;-86
2024/02/20 20:01:47;;;;;;;;;;;;;;;-146.32;100.00;63746.28;4133371;28;19936;-87
2024/02/20 20:04:07;;;;;;;;;;;;;;;-146.32;100.00;63746.28;4141198;28;19968;-93
2024/02/20 20:06:29;;;;;;;;;;;;;;;-146.32;100.00;63746.28;4140553;28;20486;-92
2024/02/20 20:08:50;;;;;;;;;;;;;;;-146.32;100.00;63746.28;4140928;28;19937;-86
2024/02/20 20:11:11;;;;;;;;;;;;;;;-146.32;100.00;63746.28;4128075;28;19957;-86
2024/02/20 20:13:34;;;;;;;;;;;;;;;-146.32;100.00;63746.28;4129694;28;20332;-86
2024/02/20 20:15:56;;;;;;;;;;;;;;;-146.32;100.00;63746.28;4137327;28;20288;-85
2024/02/20 20:18:17;;;;;;;;;;;;;;;-146.32;100.00;63746.28;4147785;28;19972;-87
2024/02/20 20:20:38;;;;;;;;;;;;;;;-146.32;100.00;63746.28;4114475;28;19933;-86
2024/02/20 20:22:59;;;;;;;;;;;;;;;-146.32;100.00;63746.28;4128508;28;20484;-92
2024/02/20 20:25:20;;;;;;;;;;;;;;;-146.32;100.00;63746.28;4132986;28;19982;-93
2024/02/20 20:27:41;;;;;;;;;;;;;;;-146.32;100.00;63746.28;4129249;28;20025;-87
2024/02/20 20:30:16;;;;;;;;;;;;;;;-146.32;100.00;63746.28;4150874;28;19979;-87